Time;durP1;ratioP1;P1;durP2;ratioP2;P2;SDS_P1;SDS_P2;PMS_P1;PMS_P2;Temp;Humidity;BMP_temperature;BMP_pressure;BME280_temperature;BME280_humidity;BME280_pressure;Samples;Min_cycle;Max_cycle;Signal;HPM_P1;HPM_P2
2023/09/22 00:00:48;;;;;;;;;;;14.50;99.90;;;;;;4931411;29;19933;-86
2023/09/22 00:03:13;;;;;;;;;;;14.50;99.90;;;;;;4914444;29;20002;-85
2023/09/22 00:05:39;;;;;;;;;;;14.60;99.90;;;;;;4931545;29;19931;-86
2023/09/22 00:08:06;;;;;;;;;;;14.60;99.90;;;;;;4931111;28;19934;-84
2023/09/22 00:10:32;;;;;;;;;;;14.60;99.90;;;;;;4931408;29;19927;-86
2023/09/22 00:12:58;;;;;;;;;;;14.60;99.90;;;;;;4931517;28;19973;-86
2023/09/22 00:15:23;;;;;;;;;;;14.60;99.90;;;;;;4930380;29;19930;-86
2023/09/22 00:17:49;;;;;;;;;;;14.50;99.90;;;;;;4931242;29;20259;-86
2023/09/22 00:20:15;;;;;;;;;;;14.50;99.90;;;;;;4931434;28;19934;-85
2023/09/22 00:22:42;;;;;;;;;;;14.50;99.90;;;;;;4931345;29;19930;-86
2023/09/22 00:25:09;;;;;;;;;;;14.60;99.90;;;;;;4930210;29;20022;-86
2023/09/22 00:27:38;;;;;;;;;;;14.60;99.90;;;;;;4932053;29;19934;-85
2023/09/22 00:30:04;;;;;;;;;;;14.60;99.90;;;;;;4925959;29;20065;-86
2023/09/22 00:32:30;;;;;;;;;;;14.50;99.90;;;;;;4941802;28;19927;-86
2023/09/22 00:34:55;;;;;;;;;;;14.60;99.90;;;;;;4926726;29;19927;-86
2023/09/22 00:37:21;;;;;;;;;;;14.60;99.90;;;;;;4928467;29;19927;-86
2023/09/22 00:39:47;;;;;;;;;;;14.60;99.90;;;;;;4930351;29;20385;-86
2023/09/22 00:42:12;;;;;;;;;;;14.60;99.90;;;;;;4934086;28;19966;-85
2023/09/22 00:44:38;;;;;;;;;;;14.60;99.90;;;;;;4930200;28;19927;-86
2023/09/22 00:47:06;;;;;;;;;;;14.50;99.90;;;;;;4929336;29;20022;-86
2023/09/22 00:49:32;;;;;;;;;;;14.60;99.90;;;;;;4930967;29;19927;-85
2023/09/22 00:51:58;;;;;;;;;;;14.60;99.90;;;;;;4930679;28;20018;-84
2023/09/22 00:54:24;;;;;;;;;;;14.60;99.90;;;;;;4930816;28;20022;-86
2023/09/22 00:56:50;;;;;;;;;;;14.60;99.90;;;;;;4930860;29;20006;-86
2023/09/22 00:59:16;;;;;;;;;;;14.60;99.90;;;;;;4930368;29;20348;-86
2023/09/22 01:01:42;;;;;;;;;;;14.60;99.90;;;;;;4930617;29;20022;-86
2023/09/22 01:04:08;;;;;;;;;;;14.60;99.90;;;;;;4930589;28;19931;-84
2023/09/22 01:06:35;;;;;;;;;;;14.60;99.90;;;;;;4916685;29;19966;-85
2023/09/22 01:09:05;;;;;;;;;;;14.60;99.90;;;;;;4933361;28;19926;-86
2023/09/22 01:11:33;;;;;;;;;;;14.60;99.90;;;;;;4933636;29;19931;-86
2023/09/22 01:13:58;;;;;;;;;;;14.60;99.90;;;;;;4933595;29;20255;-85
2023/09/22 01:16:24;;;;;;;;;;;14.60;99.90;;;;;;4933316;29;19938;-87
2023/09/22 01:18:49;;;;;;;;;;;14.60;99.90;;;;;;4930792;29;19954;-86
2023/09/22 01:21:15;;;;;;;;;;;14.50;99.90;;;;;;4932016;29;19960;-85
2023/09/22 01:23:40;;;;;;;;;;;14.50;99.90;;;;;;4932389;29;19927;-84
2023/09/22 01:26:06;;;;;;;;;;;14.50;99.90;;;;;;4933587;28;19931;-85
2023/09/22 01:28:32;;;;;;;;;;;14.50;99.90;;;;;;4933582;29;20022;-85
2023/09/22 01:30:59;;;;;;;;;;;14.50;99.90;;;;;;4933533;29;19926;-86
2023/09/22 01:33:24;;;;;;;;;;;14.60;99.90;;;;;;4933742;29;19927;-84
2023/09/22 01:35:50;;;;;;;;;;;14.50;99.90;;;;;;4947885;28;19934;-84
2023/09/22 01:38:18;;;;;;;;;;;14.60;99.90;;;;;;4930105;28;19927;-85
2023/09/22 01:40:43;;;;;;;;;;;14.50;99.90;;;;;;4932425;29;20282;-87
2023/09/22 01:43:10;;;;;;;;;;;14.50;99.90;;;;;;4936310;28;19931;-87
2023/09/22 01:45:36;;;;;;;;;;;14.50;99.90;;;;;;4928123;29;19935;-85
2023/09/22 01:48:02;;;;;;;;;;;14.40;99.90;;;;;;4932710;29;19972;-84
2023/09/22 01:50:28;;;;;;;;;;;14.40;99.90;;;;;;4929457;29;19927;-86
2023/09/22 01:52:54;;;;;;;;;;;14.30;99.90;;;;;;4932911;28;19942;-85
2023/09/22 01:55:20;;;;;;;;;;;14.20;99.90;;;;;;4932468;28;20005;-85
2023/09/22 01:57:49;;;;;;;;;;;14.20;99.90;;;;;;4914426;29;20012;-86
2023/09/22 02:00:15;;;;;;;;;;;14.10;99.90;;;;;;4932281;29;19927;-86
2023/09/22 02:02:43;;;;;;;;;;;14.00;99.90;;;;;;4934523;29;19926;-85
2023/09/22 02:05:12;;;;;;;;;;;14.00;99.90;;;;;;4916161;29;20373;-84
2023/09/22 02:07:38;;;;;;;;;;;13.90;99.90;;;;;;4932636;29;19927;-85
2023/09/22 02:10:04;;;;;;;;;;;13.90;99.90;;;;;;4915093;29;19939;-86
2023/09/22 02:12:30;;;;;;;;;;;13.90;99.90;;;;;;4933473;28;19931;-85
2023/09/22 02:14:56;;;;;;;;;;;13.90;99.90;;;;;;4933731;29;20006;-85
2023/09/22 02:17:22;;;;;;;;;;;13.90;99.90;;;;;;4933815;29;20009;-86
2023/09/22 02:19:48;;;;;;;;;;;13.90;99.90;;;;;;4933047;29;19973;-85
2023/09/22 02:22:13;;;;;;;;;;;13.90;99.90;;;;;;4933931;29;19938;-85
2023/09/22 02:24:39;;;;;;;;;;;13.90;99.90;;;;;;4949099;28;19930;-85
2023/09/22 02:27:05;;;;;;;;;;;13.90;99.90;;;;;;4930870;29;19927;-86
2023/09/22 02:29:30;;;;;;;;;;;13.90;99.90;;;;;;4933105;29;19927;-85
2023/09/22 02:31:56;;;;;;;;;;;13.90;99.90;;;;;;4933108;29;19927;-87
2023/09/22 02:34:21;;;;;;;;;;;13.90;99.90;;;;;;4932837;29;20300;-86
2023/09/22 02:36:48;;;;;;;;;;;13.90;99.90;;;;;;4932008;29;19933;-85
2023/09/22 02:39:15;;;;;;;;;;;14.00;99.90;;;;;;4932733;29;20000;-84
2023/09/22 02:41:41;;;;;;;;;;;13.90;99.90;;;;;;4932948;29;19927;-86
2023/09/22 02:44:08;;;;;;;;;;;14.00;99.90;;;;;;4916339;28;19927;-84
2023/09/22 02:46:36;;;;;;;;;;;13.90;99.90;;;;;;4931846;29;19930;-86
2023/09/22 02:49:03;;;;;;;;;;;13.90;99.90;;;;;;4933799;29;19941;-84
2023/09/22 02:51:28;;;;;;;;;;;14.00;99.90;;;;;;4932141;29;19927;-84
2023/09/22 02:53:54;;;;;;;;;;;13.90;99.90;;;;;;4927521;29;20388;-84
2023/09/22 02:56:20;;;;;;;;;;;13.90;99.90;;;;;;4931608;29;20281;-83
2023/09/22 02:58:45;;;;;;;;;;;13.90;99.90;;;;;;4932225;29;19931;-84
2023/09/22 03:01:11;;;;;;;;;;;14.00;99.90;;;;;;4929580;28;19927;-86
2023/09/22 03:03:38;;;;;;;;;;;14.00;99.90;;;;;;4945114;28;19927;-84
2023/09/22 03:06:03;;;;;;;;;;;14.00;99.90;;;;;;4932368;29;20374;-85
2023/09/22 03:08:29;;;;;;;;;;;14.00;99.90;;;;;;4930907;29;19977;-84
2023/09/22 03:10:55;;;;;;;;;;;14.00;99.90;;;;;;4932770;29;19930;-84
2023/09/22 03:13:20;;;;;;;;;;;13.90;99.90;;;;;;4932045;29;19965;-83
2023/09/22 03:15:46;;;;;;;;;;;14.00;99.90;;;;;;4932382;29;19927;-86
2023/09/22 03:18:11;;;;;;;;;;;14.00;99.90;;;;;;4932036;29;20370;-84
2023/09/22 03:20:37;;;;;;;;;;;14.00;99.90;;;;;;4932560;29;20392;-85
2023/09/22 03:23:03;;;;;;;;;;;13.90;99.90;;;;;;4933433;29;19949;-85
2023/09/22 03:25:29;;;;;;;;;;;13.90;99.90;;;;;;4928884;29;20661;-84
2023/09/22 03:27:54;;;;;;;;;;;13.90;99.90;;;;;;4919256;29;19927;-85
2023/09/22 03:30:21;;;;;;;;;;;13.90;99.90;;;;;;4912167;29;19927;-82
2023/09/22 03:32:46;;;;;;;;;;;13.90;99.90;;;;;;4927738;28;20009;-84
2023/09/22 03:35:13;;;;;;;;;;;13.90;99.90;;;;;;4939420;28;20056;-88
2023/09/22 03:37:40;;;;;;;;;;;13.90;99.90;;;;;;4929053;29;19931;-83
2023/09/22 03:40:13;;;;;;;;;;;13.80;99.90;;;;;;4928839;29;19926;-84
2023/09/22 03:42:39;;;;;;;;;;;13.80;99.90;;;;;;4912803;29;19927;-84
2023/09/22 03:45:06;;;;;;;;;;;13.80;99.90;;;;;;4912400;29;19927;-83
2023/09/22 03:47:32;;;;;;;;;;;13.80;99.90;;;;;;4926877;28;19985;-85
2023/09/22 03:49:58;;;;;;;;;;;13.80;99.90;;;;;;4944045;28;20083;-88
2023/09/22 03:52:23;;;;;;;;;;;13.80;99.90;;;;;;4927697;29;19931;-84
2023/09/22 03:54:49;;;;;;;;;;;13.80;99.90;;;;;;4927640;28;19926;-83
2023/09/22 03:57:16;;;;;;;;;;;13.80;99.90;;;;;;4927311;28;19933;-85
2023/09/22 03:59:42;;;;;;;;;;;13.80;99.90;;;;;;4912350;29;19927;-84
2023/09/22 04:02:07;;;;;;;;;;;13.80;99.90;;;;;;4926537;29;19935;-85
2023/09/22 04:04:33;;;;;;;;;;;13.70;99.90;;;;;;4925753;29;19931;-84
2023/09/22 04:06:59;;;;;;;;;;;13.70;99.90;;;;;;4930617;28;19927;-85
2023/09/22 04:09:25;;;;;;;;;;;13.70;99.90;;;;;;4927338;29;19965;-86
2023/09/22 04:11:52;;;;;;;;;;;13.70;99.90;;;;;;4911037;29;19981;-86
2023/09/22 04:14:19;;;;;;;;;;;13.60;99.90;;;;;;4925092;28;20348;-84
2023/09/22 04:16:44;;;;;;;;;;;13.60;99.90;;;;;;4925580;28;19970;-84
2023/09/22 04:19:10;;;;;;;;;;;13.60;99.90;;;;;;4931849;28;19954;-83
2023/09/22 04:21:42;;;;;;;;;;;13.50;99.90;;;;;;4927094;29;19931;-85
2023/09/22 04:24:09;;;;;;;;;;;13.50;99.90;;;;;;4932633;28;19935;-82
2023/09/22 04:26:42;;;;;;;;;;;13.50;99.90;;;;;;4928617;29;19973;-83
2023/09/22 04:29:08;;;;;;;;;;;13.40;99.90;;;;;;4925184;28;19976;-84
2023/09/22 04:31:33;;;;;;;;;;;13.30;99.90;;;;;;4926525;28;19934;-85
2023/09/22 04:33:59;;;;;;;;;;;13.30;99.90;;;;;;4993289;28;19933;-85
2023/09/22 04:36:25;;;;;;;;;;;13.20;99.90;;;;;;4929707;28;19926;-86
2023/09/22 04:38:50;;;;;;;;;;;13.10;99.90;;;;;;4931207;29;19926;-84
2023/09/22 04:41:19;;;;;;;;;;;13.10;99.90;;;;;;4941936;28;19927;-84
2023/09/22 04:43:45;;;;;;;;;;;13.10;99.90;;;;;;4933516;29;20366;-84
2023/09/22 04:46:10;;;;;;;;;;;13.10;99.90;;;;;;4935695;28;19931;-83
2023/09/22 04:48:36;;;;;;;;;;;13.00;99.90;;;;;;4934472;29;19927;-82
2023/09/22 04:51:04;;;;;;;;;;;13.00;99.90;;;;;;4935626;29;19927;-85
2023/09/22 04:53:29;;;;;;;;;;;13.00;99.90;;;;;;4934142;29;19927;-82
2023/09/22 04:56:00;;;;;;;;;;;13.00;99.90;;;;;;4934705;29;19934;-84
2023/09/22 04:58:26;;;;;;;;;;;13.00;99.90;;;;;;4934521;29;19985;-83
2023/09/22 05:00:55;;;;;;;;;;;13.00;99.90;;;;;;4918612;29;19974;-84
2023/09/22 05:03:21;;;;;;;;;;;12.90;99.90;;;;;;4931193;28;19928;-86
2023/09/22 05:05:48;;;;;;;;;;;12.90;99.90;;;;;;4933814;28;19931;-83
2023/09/22 05:08:14;;;;;;;;;;;12.90;99.90;;;;;;4918135;29;20021;-86
2023/09/22 05:10:39;;;;;;;;;;;12.90;99.90;;;;;;4934484;29;20045;-85
2023/09/22 05:13:06;;;;;;;;;;;12.90;99.90;;;;;;4933886;29;19934;-86
2023/09/22 05:15:33;;;;;;;;;;;12.90;99.90;;;;;;4914844;29;19931;-86
2023/09/22 05:17:59;;;;;;;;;;;12.90;99.90;;;;;;4911060;29;19931;-84
2023/09/22 05:20:24;;;;;;;;;;;13.00;99.90;;;;;;4931035;28;19927;-84
2023/09/22 05:22:50;;;;;;;;;;;13.00;99.90;;;;;;4922663;28;19927;-87
2023/09/22 05:25:16;;;;;;;;;;;13.00;99.90;;;;;;4945375;28;19977;-84
2023/09/22 05:27:44;;;;;;;;;;;12.90;99.90;;;;;;4945197;28;19931;-83
2023/09/22 05:30:10;;;;;;;;;;;13.00;99.90;;;;;;4906609;29;19927;-83
2023/09/22 05:32:36;;;;;;;;;;;12.90;99.90;;;;;;4931119;29;20317;-83
2023/09/22 05:35:02;;;;;;;;;;;12.90;99.90;;;;;;4933322;29;19927;-85
2023/09/22 05:37:28;;;;;;;;;;;12.90;99.90;;;;;;4932126;28;19927;-86
2023/09/22 05:39:53;;;;;;;;;;;12.90;99.90;;;;;;4917913;29;19937;-86
2023/09/22 05:42:19;;;;;;;;;;;12.90;99.90;;;;;;4940709;29;20386;-85
2023/09/22 05:44:45;;;;;;;;;;;12.90;99.90;;;;;;4970488;28;20014;-84
2023/09/22 05:47:10;;;;;;;;;;;12.90;99.90;;;;;;4931365;29;19935;-85
2023/09/22 05:49:36;;;;;;;;;;;12.90;99.90;;;;;;4934572;29;19934;-84
2023/09/22 05:52:01;;;;;;;;;;;13.00;99.90;;;;;;4932719;29;19931;-83
2023/09/22 05:54:27;;;;;;;;;;;13.00;99.90;;;;;;4933917;28;20013;-85
2023/09/22 05:56:52;;;;;;;;;;;13.00;99.90;;;;;;4932753;29;19933;-83
2023/09/22 05:59:18;;;;;;;;;;;13.00;99.90;;;;;;4933550;29;19927;-85
2023/09/22 06:01:43;;;;;;;;;;;13.00;99.90;;;;;;4933430;29;19938;-85
2023/09/22 06:04:09;;;;;;;;;;;13.00;99.90;;;;;;4933572;29;19979;-83
2023/09/22 06:06:35;;;;;;;;;;;13.00;99.90;;;;;;4932431;29;19952;-83
2023/09/22 06:09:00;;;;;;;;;;;13.00;99.90;;;;;;4932794;29;19933;-83
2023/09/22 06:11:26;;;;;;;;;;;13.00;99.90;;;;;;4934513;28;19927;-84
2023/09/22 06:13:52;;;;;;;;;;;13.00;99.90;;;;;;4926577;29;21146;-88
2023/09/22 06:16:18;;;;;;;;;;;13.10;99.90;;;;;;4925886;29;19927;-86
2023/09/22 06:18:44;;;;;;;;;;;13.10;99.90;;;;;;4932295;29;19930;-84
2023/09/22 06:21:10;;;;;;;;;;;13.20;99.90;;;;;;4933018;29;19927;-85
2023/09/22 06:23:36;;;;;;;;;;;13.20;99.90;;;;;;4917199;29;19992;-84
2023/09/22 06:26:03;;;;;;;;;;;13.20;99.90;;;;;;4972385;28;19932;-84
2023/09/22 06:28:29;;;;;;;;;;;13.20;99.90;;;;;;4925019;28;20325;-83
2023/09/22 06:30:59;;;;;;;;;;;13.30;99.90;;;;;;4933799;29;19927;-83
2023/09/22 06:33:24;;;;;;;;;;;13.30;99.90;;;;;;4940555;29;19942;-85
2023/09/22 06:35:55;;;;;;;;;;;13.30;99.90;;;;;;4921306;29;19927;-84
2023/09/22 06:38:22;;;;;;;;;;;13.30;99.90;;;;;;4931541;29;19927;-84
2023/09/22 06:40:47;;;;;;;;;;;13.40;99.90;;;;;;4932133;29;19934;-85
2023/09/22 06:43:13;;;;;;;;;;;13.50;99.90;;;;;;4933352;28;19927;-84
2023/09/22 06:45:39;;;;;;;;;;;13.60;99.90;;;;;;4941049;29;19926;-84
2023/09/22 06:48:09;;;;;;;;;;;13.60;99.90;;;;;;4918508;29;19934;-84
2023/09/22 06:50:37;;;;;;;;;;;13.60;99.90;;;;;;4947134;28;19957;-83
2023/09/22 06:53:03;;;;;;;;;;;13.70;99.90;;;;;;4932288;29;20349;-83
2023/09/22 06:55:32;;;;;;;;;;;13.70;99.90;;;;;;4933067;29;19927;-84
2023/09/22 06:57:59;;;;;;;;;;;13.80;99.90;;;;;;4930125;29;19949;-85
2023/09/22 07:00:28;;;;;;;;;;;13.80;99.90;;;;;;4929887;28;20378;-85
2023/09/22 07:02:54;;;;;;;;;;;13.80;99.90;;;;;;4928568;29;19938;-84
2023/09/22 07:05:20;;;;;;;;;;;13.90;99.90;;;;;;4931395;29;19927;-85
2023/09/22 07:07:46;;;;;;;;;;;13.90;99.90;;;;;;4932017;29;19933;-84
2023/09/22 07:10:12;;;;;;;;;;;13.80;99.90;;;;;;4929948;29;19926;-85
2023/09/22 07:12:39;;;;;;;;;;;13.80;99.90;;;;;;4926015;29;20021;-84
2023/09/22 07:15:05;;;;;;;;;;;13.90;99.90;;;;;;4930718;29;19973;-86
2023/09/22 07:17:33;;;;;;;;;;;13.90;99.90;;;;;;4931047;29;19927;-85
2023/09/22 07:20:00;;;;;;;;;;;13.90;99.90;;;;;;4931300;29;19976;-83
2023/09/22 07:22:26;;;;;;;;;;;14.00;99.90;;;;;;4931145;29;19931;-85
2023/09/22 07:24:52;;;;;;;;;;;14.00;99.90;;;;;;4936089;28;20396;-85
2023/09/22 07:27:18;;;;;;;;;;;14.00;99.90;;;;;;4923290;28;19927;-84
2023/09/22 07:29:43;;;;;;;;;;;14.00;99.90;;;;;;4932512;28;19931;-84
2023/09/22 07:32:09;;;;;;;;;;;14.10;99.90;;;;;;4946637;28;19974;-84
2023/09/22 07:34:34;;;;;;;;;;;14.10;99.90;;;;;;4932973;29;19933;-84
2023/09/22 07:37:00;;;;;;;;;;;14.10;99.90;;;;;;4932071;29;19930;-84
2023/09/22 07:39:26;;;;;;;;;;;14.10;99.90;;;;;;4933005;29;20293;-84
2023/09/22 07:41:51;;;;;;;;;;;14.10;99.90;;;;;;4930485;29;19931;-85
2023/09/22 07:44:21;;;;;;;;;;;14.20;99.90;;;;;;4932209;29;19927;-83
2023/09/22 07:46:50;;;;;;;;;;;14.20;99.90;;;;;;4932860;29;19927;-84
2023/09/22 07:49:15;;;;;;;;;;;14.20;99.90;;;;;;4932500;29;20409;-84
2023/09/22 07:51:41;;;;;;;;;;;14.30;99.90;;;;;;4930173;29;19969;-85
2023/09/22 07:54:08;;;;;;;;;;;14.40;99.90;;;;;;4931011;29;20419;-84
2023/09/22 07:56:34;;;;;;;;;;;14.50;99.90;;;;;;4933326;28;19931;-84
2023/09/22 07:59:02;;;;;;;;;;;14.60;99.90;;;;;;4931821;29;19953;-84
2023/09/22 08:01:27;;;;;;;;;;;14.70;99.90;;;;;;4915920;29;19973;-82
2023/09/22 08:03:53;;;;;;;;;;;14.80;99.90;;;;;;4930891;29;19930;-85
2023/09/22 08:06:19;;;;;;;;;;;15.10;99.90;;;;;;4932571;29;19953;-84
2023/09/22 08:08:49;;;;;;;;;;;15.30;99.90;;;;;;4931494;29;19938;-84
2023/09/22 08:11:18;;;;;;;;;;;15.30;99.90;;;;;;4931837;29;19934;-84
2023/09/22 08:13:45;;;;;;;;;;;15.30;99.90;;;;;;4930708;29;20416;-84
2023/09/22 08:16:12;;;;;;;;;;;15.30;99.90;;;;;;4938264;29;20282;-85
2023/09/22 08:18:40;;;;;;;;;;;15.30;99.90;;;;;;4938927;28;19927;-85
2023/09/22 08:21:09;;;;;;;;;;;15.20;99.90;;;;;;4933264;29;19930;-85
2023/09/22 08:23:35;;;;;;;;;;;15.20;99.90;;;;;;4933488;29;19927;-87
2023/09/22 08:26:05;;;;;;;;;;;15.10;99.90;;;;;;4937118;28;20384;-84
2023/09/22 08:28:31;;;;;;;;;;;15.00;99.90;;;;;;4938341;29;20021;-85
2023/09/22 08:30:57;;;;;;;;;;;15.00;99.90;;;;;;4953692;28;19937;-84
2023/09/22 08:33:23;;;;;;;;;;;15.00;99.90;;;;;;4938629;29;19927;-85
2023/09/22 08:35:48;;;;;;;;;;;14.90;99.90;;;;;;4935752;29;19934;-85
2023/09/22 08:38:14;;;;;;;;;;;14.90;99.90;;;;;;4936859;29;20006;-85
2023/09/22 08:40:40;;;;;;;;;;;14.80;99.90;;;;;;4938446;29;20057;-83
2023/09/22 08:43:05;;;;;;;;;;;14.70;99.90;;;;;;4928982;28;19933;-84
2023/09/22 08:45:31;;;;;;;;;;;14.70;99.90;;;;;;4936175;29;20436;-83
2023/09/22 08:47:59;;;;;;;;;;;14.60;99.90;;;;;;4938222;29;19927;-85
2023/09/22 08:50:26;;;;;;;;;;;14.70;99.90;;;;;;4921880;29;19977;-86
2023/09/22 08:52:52;;;;;;;;;;;14.80;99.90;;;;;;4938178;29;20370;-85
2023/09/22 08:55:18;;;;;;;;;;;14.90;99.90;;;;;;4939775;28;19934;-87
2023/09/22 08:57:44;;;;;;;;;;;15.10;99.90;;;;;;4934860;29;20343;-85
2023/09/22 09:00:18;;;;;;;;;;;15.30;99.90;;;;;;4937533;28;19927;-85
2023/09/22 09:02:44;;;;;;;;;;;15.40;99.90;;;;;;4938381;29;19926;-85
2023/09/22 09:05:29;;;;;;;;;;;15.60;99.90;;;;;;4937135;29;20021;-85
2023/09/22 09:07:55;;;;;;;;;;;15.90;99.90;;;;;;4937185;29;20286;-87
2023/09/22 09:10:27;;;;;;;;;;;16.20;99.90;;;;;;4936722;29;20046;-82
2023/09/22 09:12:54;;;;;;;;;;;16.50;99.90;;;;;;4936368;29;20366;-82
2023/09/22 09:15:30;;;;;;;;;;;16.90;99.90;;;;;;4937027;29;19973;-86
2023/09/22 09:18:05;;;;;;;;;;;17.30;99.90;;;;;;4935532;29;19927;-84
2023/09/22 09:20:31;;;;;;;;;;;17.60;99.90;;;;;;4935359;29;19949;-84
2023/09/22 09:22:56;;;;;;;;;;;17.90;99.90;;;;;;4939819;29;19934;-84
2023/09/22 09:25:22;;;;;;;;;;;18.20;99.90;;;;;;4936092;29;19927;-86
2023/09/22 09:27:58;;;;;;;;;;;18.50;99.90;;;;;;4931320;29;19997;-86
2023/09/22 09:30:24;;;;;;;;;;;18.80;99.90;;;;;;4932826;28;19928;-83
2023/09/22 09:32:49;;;;;;;;;;;19.20;99.90;;;;;;4932323;28;19927;-85
2023/09/22 09:35:30;;;;;;;;;;;19.60;99.90;;;;;;4933567;29;20053;-85
2023/09/22 09:38:03;;;;;;;;;;;19.80;99.90;;;;;;4933482;29;20013;-88
2023/09/22 09:40:29;;;;;;;;;;;20.00;99.90;;;;;;4931129;29;19926;-84
2023/09/22 09:42:54;;;;;;;;;;;20.20;99.90;;;;;;4932867;28;20564;-84
2023/09/22 09:45:23;;;;;;;;;;;20.30;99.90;;;;;;4931662;28;20584;-85
2023/09/22 09:47:54;;;;;;;;;;;20.60;99.90;;;;;;4932110;28;20381;-84
2023/09/22 09:50:20;;;;;;;;;;;20.90;99.90;;;;;;4934367;29;19927;-84
2023/09/22 09:52:51;;;;;;;;;;;20.90;99.90;;;;;;4933042;29;20270;-85
2023/09/22 09:55:17;;;;;;;;;;;20.90;99.90;;;;;;4922793;29;19970;-84
2023/09/22 09:57:44;;;;;;;;;;;21.00;99.90;;;;;;4933038;29;20389;-84
2023/09/22 10:00:19;;;;;;;;;;;21.20;99.90;;;;;;4933453;28;19985;-83
2023/09/22 10:02:45;;;;;;;;;;;21.20;99.90;;;;;;4934489;29;19931;-85
2023/09/22 10:05:14;;;;;;;;;;;21.20;99.90;;;;;;4932054;29;19927;-84
2023/09/22 10:07:41;;;;;;;;;;;21.00;99.90;;;;;;4928518;29;20394;-83
2023/09/22 10:10:07;;;;;;;;;;;20.60;99.90;;;;;;4945123;29;19927;-84
2023/09/22 10:12:33;;;;;;;;;;;20.20;99.90;;;;;;4935626;28;19934;-84
2023/09/22 10:15:04;;;;;;;;;;;19.80;99.90;;;;;;4931424;29;19934;-84
2023/09/22 10:17:30;;;;;;;;;;;19.40;99.90;;;;;;4933324;29;19972;-83
2023/09/22 10:19:57;;;;;;;;;;;19.10;99.90;;;;;;4929007;29;19931;-82
2023/09/22 10:22:22;;;;;;;;;;;19.00;99.90;;;;;;4935191;28;19942;-83
2023/09/22 10:25:06;;;;;;;;;;;19.00;99.90;;;;;;4955031;28;20477;-85
2023/09/22 10:27:52;;;;;;;;;;;19.00;99.90;;;;;;4932744;28;19934;-84
2023/09/22 10:30:19;;;;;;;;;;;18.90;99.90;;;;;;4931657;28;20499;-85
2023/09/22 10:32:45;;;;;;;;;;;18.60;99.90;;;;;;4929857;29;20397;-84
2023/09/22 10:35:12;;;;;;;;;;;18.50;99.90;;;;;;4928657;29;19930;-84
2023/09/22 10:37:55;;;;;;;;;;;18.50;99.90;;;;;;4932148;29;19927;-83
2023/09/22 10:40:22;;;;;;;;;;;18.40;99.90;;;;;;4932321;29;20326;-83
2023/09/22 10:42:52;;;;;;;;;;;18.20;99.90;;;;;;4924189;28;19945;-84
2023/09/22 10:45:21;;;;;;;;;;;18.20;99.90;;;;;;4931325;29;19934;-83
2023/09/22 10:47:49;;;;;;;;;;;18.20;99.90;;;;;;4933057;29;20377;-84
2023/09/22 10:50:16;;;;;;;;;;;18.30;99.90;;;;;;4933808;29;19941;-85
2023/09/22 10:52:51;;;;;;;;;;;18.40;99.90;;;;;;4931495;29;19993;-82
2023/09/22 10:55:24;;;;;;;;;;;18.50;99.90;;;;;;4932796;29;20302;-83
2023/09/22 10:57:50;;;;;;;;;;;18.70;99.90;;;;;;4933262;29;19962;-83
2023/09/22 11:00:18;;;;;;;;;;;18.80;99.90;;;;;;4933445;29;20541;-85
2023/09/22 11:02:43;;;;;;;;;;;19.10;99.90;;;;;;4933240;28;19933;-85
2023/09/22 11:05:12;;;;;;;;;;;19.20;99.90;;;;;;4931355;28;19939;-83
2023/09/22 11:07:38;;;;;;;;;;;19.10;99.90;;;;;;4936951;28;19930;-85
2023/09/22 11:10:04;;;;;;;;;;;18.90;99.90;;;;;;4931361;28;19958;-85
2023/09/22 11:12:31;;;;;;;;;;;18.60;99.90;;;;;;4932432;29;19930;-85
2023/09/22 11:14:56;;;;;;;;;;;18.30;99.90;;;;;;4947280;28;20308;-85
2023/09/22 11:17:35;;;;;;;;;;;18.20;99.90;;;;;;4931263;29;19927;-85
2023/09/22 11:20:10;;;;;;;;;;;18.10;99.90;;;;;;4931810;29;20445;-85
2023/09/22 11:22:38;;;;;;;;;;;18.10;99.90;;;;;;4931852;29;20373;-84
2023/09/22 11:25:05;;;;;;;;;;;18.30;99.90;;;;;;4931986;29;19938;-86
2023/09/22 11:27:31;;;;;;;;;;;18.50;99.90;;;;;;4913722;29;19997;-84
2023/09/22 11:30:11;;;;;;;;;;;18.60;99.90;;;;;;4933080;29;19935;-86
2023/09/22 11:32:37;;;;;;;;;;;18.60;99.90;;;;;;4930507;29;19933;-85
2023/09/22 11:35:04;;;;;;;;;;;18.70;99.90;;;;;;4932153;29;20005;-85
2023/09/22 11:37:30;;;;;;;;;;;18.90;99.90;;;;;;4946971;28;19974;-88
2023/09/22 11:39:56;;;;;;;;;;;19.10;99.90;;;;;;4916338;29;19934;-84
2023/09/22 11:42:23;;;;;;;;;;;19.20;99.90;;;;;;4930911;29;19927;-84
2023/09/22 11:44:58;;;;;;;;;;;19.10;99.90;;;;;;4997788;28;19930;-84
2023/09/22 11:47:23;;;;;;;;;;;19.00;99.90;;;;;;4928573;29;19935;-86
2023/09/22 11:49:49;;;;;;;;;;;18.90;99.90;;;;;;4932089;29;19926;-84
2023/09/22 11:52:26;;;;;;;;;;;18.80;99.90;;;;;;4951090;28;19927;-84
2023/09/22 11:54:52;;;;;;;;;;;18.80;99.90;;;;;;4931220;29;20017;-84
2023/09/22 11:57:19;;;;;;;;;;;18.80;99.90;;;;;;4916261;29;20457;-85
2023/09/22 11:59:46;;;;;;;;;;;18.80;99.90;;;;;;4913725;29;19976;-85
2023/09/22 12:02:12;;;;;;;;;;;18.70;99.90;;;;;;4930765;29;20384;-85
2023/09/22 12:04:37;;;;;;;;;;;18.70;99.90;;;;;;4931969;29;19931;-83
2023/09/22 12:07:03;;;;;;;;;;;18.80;99.90;;;;;;4947349;28;20101;-85
2023/09/22 12:09:29;;;;;;;;;;;18.90;99.90;;;;;;4945787;28;20014;-84
2023/09/22 12:11:55;;;;;;;;;;;18.80;99.90;;;;;;4931247;29;20022;-84
2023/09/22 12:14:22;;;;;;;;;;;18.70;99.90;;;;;;4912250;29;19927;-84
2023/09/22 12:16:49;;;;;;;;;;;18.70;99.90;;;;;;4943314;28;19962;-85
2023/09/22 12:19:15;;;;;;;;;;;18.80;99.90;;;;;;4930298;29;19946;-86
2023/09/22 12:21:40;;;;;;;;;;;18.80;99.90;;;;;;4932438;29;19927;-84
2023/09/22 12:24:06;;;;;;;;;;;18.80;99.90;;;;;;4931284;29;19927;-86
2023/09/22 12:26:31;;;;;;;;;;;18.70;99.90;;;;;;4931242;29;19980;-86
2023/09/22 12:28:57;;;;;;;;;;;18.60;99.90;;;;;;4936040;28;19930;-84
2023/09/22 12:31:23;;;;;;;;;;;18.40;99.90;;;;;;4927106;28;20381;-84
2023/09/22 12:33:49;;;;;;;;;;;18.30;99.90;;;;;;4929784;28;19926;-84
2023/09/22 12:36:15;;;;;;;;;;;18.30;99.90;;;;;;4922718;29;20413;-85
2023/09/22 12:38:41;;;;;;;;;;;18.20;99.90;;;;;;4960107;28;20402;-87
2023/09/22 12:41:06;;;;;;;;;;;18.20;99.90;;;;;;4929093;28;19935;-85
2023/09/22 12:43:32;;;;;;;;;;;18.20;99.90;;;;;;4902056;28;19954;-86
2023/09/22 12:45:57;;;;;;;;;;;18.20;99.90;;;;;;4923325;29;19927;-84
2023/09/22 12:48:23;;;;;;;;;;;18.30;99.90;;;;;;4930967;29;19937;-84
2023/09/22 12:50:55;;;;;;;;;;;18.30;99.90;;;;;;4933951;29;20432;-83
2023/09/22 12:53:25;;;;;;;;;;;18.50;99.90;;;;;;4929261;29;19978;-86
2023/09/22 12:55:57;;;;;;;;;;;18.70;99.90;;;;;;4924006;28;20311;-83
2023/09/22 12:58:24;;;;;;;;;;;19.00;99.90;;;;;;4925717;28;20005;-83
2023/09/22 13:00:50;;;;;;;;;;;19.20;99.90;;;;;;4927764;29;19931;-84
2023/09/22 13:03:16;;;;;;;;;;;19.20;99.90;;;;;;4930136;29;20014;-86
2023/09/22 13:05:42;;;;;;;;;;;19.20;99.90;;;;;;4914881;28;20294;-84
2023/09/22 13:08:08;;;;;;;;;;;19.10;99.90;;;;;;4930388;28;19938;-86
2023/09/22 13:10:38;;;;;;;;;;;19.00;99.90;;;;;;4930713;29;19931;-85
2023/09/22 13:13:03;;;;;;;;;;;19.10;99.90;;;;;;4929819;28;19935;-86
2023/09/22 13:15:29;;;;;;;;;;;19.00;99.90;;;;;;4946496;28;19927;-86
2023/09/22 13:17:54;;;;;;;;;;;19.00;99.90;;;;;;4914501;29;19931;-85
2023/09/22 13:20:20;;;;;;;;;;;19.10;99.90;;;;;;4932835;28;19933;-85
2023/09/22 13:22:46;;;;;;;;;;;19.30;99.90;;;;;;4930902;28;19934;-85
2023/09/22 13:25:11;;;;;;;;;;;19.60;99.90;;;;;;4934813;28;19974;-84
2023/09/22 13:27:39;;;;;;;;;;;19.90;99.90;;;;;;4936857;29;19927;-83
2023/09/22 13:30:05;;;;;;;;;;;20.10;99.90;;;;;;4933785;29;20025;-84
2023/09/22 13:32:31;;;;;;;;;;;19.90;99.90;;;;;;4930919;28;20350;-83
2023/09/22 13:34:57;;;;;;;;;;;19.60;99.90;;;;;;4937474;28;19931;-83
2023/09/22 13:37:23;;;;;;;;;;;19.40;99.90;;;;;;4928992;29;19927;-85
2023/09/22 13:39:48;;;;;;;;;;;19.20;99.90;;;;;;4930522;29;19926;-86
2023/09/22 13:42:14;;;;;;;;;;;19.00;99.90;;;;;;4935120;28;19941;-84
2023/09/22 13:44:40;;;;;;;;;;;18.80;99.90;;;;;;4931876;29;19931;-85
2023/09/22 13:47:05;;;;;;;;;;;18.70;99.90;;;;;;4933894;29;19931;-85
2023/09/22 13:49:31;;;;;;;;;;;18.60;99.90;;;;;;4917746;29;20281;-85
2023/09/22 13:51:56;;;;;;;;;;;18.50;99.90;;;;;;4940979;29;19931;-84
2023/09/22 13:54:22;;;;;;;;;;;18.60;99.90;;;;;;4938193;29;19927;-88
2023/09/22 13:56:47;;;;;;;;;;;18.70;99.90;;;;;;4933676;29;19927;-87
2023/09/22 13:59:13;;;;;;;;;;;19.00;99.90;;;;;;4917801;29;19927;-84
2023/09/22 14:01:39;;;;;;;;;;;19.10;99.90;;;;;;4917609;29;20426;-85
2023/09/22 14:04:04;;;;;;;;;;;19.20;99.90;;;;;;4917697;29;19985;-85
2023/09/22 14:06:30;;;;;;;;;;;19.40;99.90;;;;;;4935306;29;19927;-86
2023/09/22 14:08:57;;;;;;;;;;;19.60;99.90;;;;;;4944677;29;19983;-85
2023/09/22 14:11:23;;;;;;;;;;;19.70;99.90;;;;;;4930494;28;20266;-85
2023/09/22 14:13:49;;;;;;;;;;;19.50;99.90;;;;;;4951215;29;19934;-85